sensor_id;sensor_type;location;lat;lon;timestamp;pressure;altitude;pressure_sealevel;temperature;humidity
79368;BME280;68834;53.152;17.962;2023-04-24T00:00:50;100126.44;;;13.36;72.03
79368;BME280;68834;53.152;17.962;2023-04-24T00:03:25;100127.48;;;13.36;71.71
79368;BME280;68834;53.152;17.962;2023-04-24T00:05:52;100121.58;;;13.39;72.28
79368;BME280;68834;53.152;17.962;2023-04-24T00:08:19;100123.42;;;13.40;72.33
79368;BME280;68834;53.152;17.962;2023-04-24T00:10:45;100120.58;;;13.41;72.10
79368;BME280;68834;53.152;17.962;2023-04-24T00:13:12;100119.99;;;13.39;72.13
79368;BME280;68834;53.152;17.962;2023-04-24T00:15:39;100119.95;;;13.36;72.16
79368;BME280;68834;53.152;17.962;2023-04-24T00:18:05;100116.38;;;13.33;72.14
79368;BME280;68834;53.152;17.962;2023-04-24T00:20:32;100108.22;;;13.31;72.32
79368;BME280;68834;53.152;17.962;2023-04-24T00:22:59;100110.95;;;13.30;72.46
79368;BME280;68834;53.152;17.962;2023-04-24T00:25:26;100109.04;;;13.29;72.25
79368;BME280;68834;53.152;17.962;2023-04-24T00:27:52;100102.52;;;13.29;72.34
79368;BME280;68834;53.152;17.962;2023-04-24T00:30:19;100106.86;;;13.31;72.32
79368;BME280;68834;53.152;17.962;2023-04-24T00:32:46;100104.97;;;13.34;72.55
79368;BME280;68834;53.152;17.962;2023-04-24T00:35:12;100100.35;;;13.35;72.35
79368;BME280;68834;53.152;17.962;2023-04-24T00:37:39;100097.05;;;13.34;72.58
79368;BME280;68834;53.152;17.962;2023-04-24T00:40:06;100094.02;;;13.28;72.90
79368;BME280;68834;53.152;17.962;2023-04-24T00:42:34;100089.86;;;13.22;73.34
79368;BME280;68834;53.152;17.962;2023-04-24T00:45:01;100084.02;;;13.19;72.58
79368;BME280;68834;53.152;17.962;2023-04-24T00:47:29;100081.88;;;13.20;73.04
79368;BME280;68834;53.152;17.962;2023-04-24T00:49:56;100078.81;;;13.22;72.85
79368;BME280;68834;53.152;17.962;2023-04-24T00:52:23;100082.15;;;13.26;72.76
79368;BME280;68834;53.152;17.962;2023-04-24T00:54:50;100084.05;;;13.30;72.98
79368;BME280;68834;53.152;17.962;2023-04-24T00:57:17;100083.45;;;13.32;73.03
79368;BME280;68834;53.152;17.962;2023-04-24T00:59:45;100083.65;;;13.31;73.13
79368;BME280;68834;53.152;17.962;2023-04-24T01:02:12;100075.45;;;13.30;72.94
79368;BME280;68834;53.152;17.962;2023-04-24T01:04:39;100078.86;;;13.25;73.16
79368;BME280;68834;53.152;17.962;2023-04-24T01:07:06;100077.64;;;13.20;73.46
79368;BME280;68834;53.152;17.962;2023-04-24T01:09:40;100077.26;;;13.17;73.35
79368;BME280;68834;53.152;17.962;2023-04-24T01:12:09;100071.13;;;13.17;73.17
79368;BME280;68834;53.152;17.962;2023-04-24T01:14:37;100075.63;;;13.18;73.27
79368;BME280;68834;53.152;17.962;2023-04-24T01:17:04;100074.34;;;13.20;73.26
79368;BME280;68834;53.152;17.962;2023-04-24T01:19:32;100069.37;;;13.21;73.07
79368;BME280;68834;53.152;17.962;2023-04-24T01:22:02;100075.23;;;13.19;73.49
79368;BME280;68834;53.152;17.962;2023-04-24T01:24:30;100064.45;;;13.17;73.28
79368;BME280;68834;53.152;17.962;2023-04-24T01:26:56;100058.20;;;13.16;73.25
79368;BME280;68834;53.152;17.962;2023-04-24T01:29:23;100057.73;;;13.14;73.20
79368;BME280;68834;53.152;17.962;2023-04-24T01:31:50;100057.38;;;13.14;73.63
79368;BME280;68834;53.152;17.962;2023-04-24T01:34:17;100057.41;;;13.14;73.08
79368;BME280;68834;53.152;17.962;2023-04-24T01:36:45;100057.43;;;13.13;73.09
79368;BME280;68834;53.152;17.962;2023-04-24T01:39:13;100061.08;;;13.14;73.54
79368;BME280;68834;53.152;17.962;2023-04-24T01:41:39;100055.74;;;13.15;73.23
79368;BME280;68834;53.152;17.962;2023-04-24T01:44:06;100058.55;;;13.16;73.46
79368;BME280;68834;53.152;17.962;2023-04-24T01:46:33;100056.66;;;13.15;73.33
79368;BME280;68834;53.152;17.962;2023-04-24T01:49:01;100056.02;;;13.14;73.63
79368;BME280;68834;53.152;17.962;2023-04-24T01:51:28;100052.69;;;13.10;73.66
79368;BME280;68834;53.152;17.962;2023-04-24T01:53:54;100050.78;;;13.09;74.00
79368;BME280;68834;53.152;17.962;2023-04-24T01:56:22;100057.16;;;13.08;73.54
79368;BME280;68834;53.152;17.962;2023-04-24T01:58:50;100053.45;;;13.08;73.84
79368;BME280;68834;53.152;17.962;2023-04-24T02:01:19;100050.56;;;13.07;73.97
79368;BME280;68834;53.152;17.962;2023-04-24T02:03:48;100056.27;;;13.04;73.86
79368;BME280;68834;53.152;17.962;2023-04-24T02:06:14;100053.52;;;13.00;74.67
79368;BME280;68834;53.152;17.962;2023-04-24T02:08:44;100052.86;;;12.94;74.72
79368;BME280;68834;53.152;17.962;2023-04-24T02:11:11;100050.84;;;12.93;74.14
79368;BME280;68834;53.152;17.962;2023-04-24T02:13:38;100051.15;;;12.94;74.18
79368;BME280;68834;53.152;17.962;2023-04-24T02:16:04;100052.52;;;12.98;74.67
79368;BME280;68834;53.152;17.962;2023-04-24T02:18:31;100043.55;;;13.03;74.52
79368;BME280;68834;53.152;17.962;2023-04-24T02:20:57;100037.73;;;13.03;74.35
79368;BME280;68834;53.152;17.962;2023-04-24T02:23:24;100032.33;;;13.03;74.74
79368;BME280;68834;53.152;17.962;2023-04-24T02:25:51;100029.77;;;13.01;74.57
79368;BME280;68834;53.152;17.962;2023-04-24T02:28:19;100025.23;;;13.01;74.70
79368;BME280;68834;53.152;17.962;2023-04-24T02:30:46;100029.22;;;13.02;75.12
79368;BME280;68834;53.152;17.962;2023-04-24T02:33:12;100026.94;;;13.01;74.71
79368;BME280;68834;53.152;17.962;2023-04-24T02:35:39;100030.15;;;13.00;74.45
79368;BME280;68834;53.152;17.962;2023-04-24T02:38:06;100031.05;;;13.04;74.52
79368;BME280;68834;53.152;17.962;2023-04-24T02:40:32;100026.87;;;13.07;74.60
79368;BME280;68834;53.152;17.962;2023-04-24T02:42:59;100025.80;;;13.07;74.62
79368;BME280;68834;53.152;17.962;2023-04-24T02:45:26;100018.10;;;13.07;74.50
79368;BME280;68834;53.152;17.962;2023-04-24T02:47:53;100015.17;;;13.05;75.12
79368;BME280;68834;53.152;17.962;2023-04-24T02:50:20;100009.66;;;13.04;74.82
79368;BME280;68834;53.152;17.962;2023-04-24T02:52:47;100001.21;;;13.00;74.77
79368;BME280;68834;53.152;17.962;2023-04-24T02:55:14;100005.13;;;12.99;75.49
79368;BME280;68834;53.152;17.962;2023-04-24T02:57:41;100007.02;;;13.00;75.21
79368;BME280;68834;53.152;17.962;2023-04-24T03:00:09;100010.38;;;13.03;74.88
79368;BME280;68834;53.152;17.962;2023-04-24T03:02:35;100009.02;;;13.06;75.06
79368;BME280;68834;53.152;17.962;2023-04-24T03:05:02;100011.28;;;13.10;75.17
79368;BME280;68834;53.152;17.962;2023-04-24T03:07:30;100021.20;;;13.15;74.87
79368;BME280;68834;53.152;17.962;2023-04-24T03:09:59;100018.07;;;13.18;75.00
79368;BME280;68834;53.152;17.962;2023-04-24T03:12:26;100019.09;;;13.19;74.77
79368;BME280;68834;53.152;17.962;2023-04-24T03:14:53;100017.92;;;13.22;74.91
79368;BME280;68834;53.152;17.962;2023-04-24T03:17:20;100018.75;;;13.23;74.85
79368;BME280;68834;53.152;17.962;2023-04-24T03:19:46;100022.09;;;13.22;74.87
79368;BME280;68834;53.152;17.962;2023-04-24T03:22:13;100026.63;;;13.23;75.15
79368;BME280;68834;53.152;17.962;2023-04-24T03:24:39;100027.38;;;13.22;74.70
79368;BME280;68834;53.152;17.962;2023-04-24T03:27:07;100025.30;;;13.22;74.83
79368;BME280;68834;53.152;17.962;2023-04-24T03:29:50;100024.36;;;13.19;75.02
79368;BME280;68834;53.152;17.962;2023-04-24T03:32:25;100028.20;;;13.16;75.07
79368;BME280;68834;53.152;17.962;2023-04-24T03:34:52;100027.29;;;13.13;75.23
79368;BME280;68834;53.152;17.962;2023-04-24T03:37:19;100030.36;;;13.11;75.44
79368;BME280;68834;53.152;17.962;2023-04-24T03:39:52;100031.83;;;13.09;75.36
79368;BME280;68834;53.152;17.962;2023-04-24T03:42:21;100034.27;;;13.10;75.75
79368;BME280;68834;53.152;17.962;2023-04-24T03:44:52;100034.92;;;13.07;75.72
79368;BME280;68834;53.152;17.962;2023-04-24T03:47:19;100029.09;;;13.04;75.79
79368;BME280;68834;53.152;17.962;2023-04-24T03:49:47;100023.52;;;13.03;75.90
79368;BME280;68834;53.152;17.962;2023-04-24T03:52:14;100017.69;;;13.04;76.42
79368;BME280;68834;53.152;17.962;2023-04-24T03:54:41;100020.23;;;13.06;76.16
79368;BME280;68834;53.152;17.962;2023-04-24T03:57:08;100020.33;;;13.08;76.36
79368;BME280;68834;53.152;17.962;2023-04-24T03:59:35;100017.20;;;13.07;76.03
79368;BME280;68834;53.152;17.962;2023-04-24T04:02:20;100014.80;;;13.09;75.94
79368;BME280;68834;53.152;17.962;2023-04-24T04:04:47;100010.65;;;13.12;76.21
79368;BME280;68834;53.152;17.962;2023-04-24T04:07:13;100006.36;;;13.14;76.21
79368;BME280;68834;53.152;17.962;2023-04-24T04:09:40;99999.91;;;13.13;76.30
79368;BME280;68834;53.152;17.962;2023-04-24T04:12:07;99999.92;;;13.12;76.39
79368;BME280;68834;53.152;17.962;2023-04-24T04:14:34;99993.17;;;13.14;76.41
79368;BME280;68834;53.152;17.962;2023-04-24T04:17:00;99997.43;;;13.17;76.31
79368;BME280;68834;53.152;17.962;2023-04-24T04:19:27;99996.42;;;13.24;76.15
79368;BME280;68834;53.152;17.962;2023-04-24T04:21:53;99996.98;;;13.31;76.08
79368;BME280;68834;53.152;17.962;2023-04-24T04:24:51;99989.77;;;13.42;76.31
79368;BME280;68834;53.152;17.962;2023-04-24T04:27:19;99985.69;;;13.46;76.22
79368;BME280;68834;53.152;17.962;2023-04-24T04:30:00;99986.27;;;13.49;76.47
79368;BME280;68834;53.152;17.962;2023-04-24T04:32:33;99986.39;;;13.43;76.59
79368;BME280;68834;53.152;17.962;2023-04-24T04:35:00;99981.45;;;13.40;76.29
79368;BME280;68834;53.152;17.962;2023-04-24T04:37:32;99979.80;;;13.41;76.38
79368;BME280;68834;53.152;17.962;2023-04-24T04:40:10;99983.99;;;13.48;76.36
79368;BME280;68834;53.152;17.962;2023-04-24T04:42:44;99987.98;;;13.57;76.12
79368;BME280;68834;53.152;17.962;2023-04-24T04:45:13;99989.06;;;13.63;76.02
79368;BME280;68834;53.152;17.962;2023-04-24T04:47:52;99990.20;;;13.61;76.12
79368;BME280;68834;53.152;17.962;2023-04-24T04:50:19;99986.67;;;13.55;76.57
79368;BME280;68834;53.152;17.962;2023-04-24T04:52:47;99988.63;;;13.51;76.14
79368;BME280;68834;53.152;17.962;2023-04-24T04:55:21;99982.75;;;13.52;76.43
79368;BME280;68834;53.152;17.962;2023-04-24T04:58:11;99971.71;;;13.59;76.39
79368;BME280;68834;53.152;17.962;2023-04-24T05:00:38;99969.70;;;13.68;76.38
79368;BME280;68834;53.152;17.962;2023-04-24T05:03:12;99967.40;;;13.79;76.28
79368;BME280;68834;53.152;17.962;2023-04-24T05:05:39;99967.69;;;13.90;76.17
79368;BME280;68834;53.152;17.962;2023-04-24T05:08:08;99967.17;;;14.00;75.94
79368;BME280;68834;53.152;17.962;2023-04-24T05:10:35;99966.76;;;14.08;75.88
79368;BME280;68834;53.152;17.962;2023-04-24T05:13:03;99962.84;;;14.16;75.88
79368;BME280;68834;53.152;17.962;2023-04-24T05:15:31;99964.33;;;14.21;75.94
79368;BME280;68834;53.152;17.962;2023-04-24T05:18:00;99959.19;;;14.29;75.80
79368;BME280;68834;53.152;17.962;2023-04-24T05:20:27;99962.05;;;14.34;75.65
79368;BME280;68834;53.152;17.962;2023-04-24T05:22:54;99959.34;;;14.39;75.69
79368;BME280;68834;53.152;17.962;2023-04-24T05:25:21;99957.71;;;14.46;75.52
79368;BME280;68834;53.152;17.962;2023-04-24T05:27:56;99953.43;;;14.54;75.43
79368;BME280;68834;53.152;17.962;2023-04-24T05:30:23;99949.86;;;14.65;75.23
79368;BME280;68834;53.152;17.962;2023-04-24T05:32:50;99948.59;;;14.76;75.07
79368;BME280;68834;53.152;17.962;2023-04-24T05:35:16;99949.09;;;14.86;74.84
79368;BME280;68834;53.152;17.962;2023-04-24T05:37:43;99954.35;;;14.92;74.66
79368;BME280;68834;53.152;17.962;2023-04-24T05:40:10;99950.76;;;15.03;74.62
79368;BME280;68834;53.152;17.962;2023-04-24T05:42:37;99949.66;;;15.13;74.64
79368;BME280;68834;53.152;17.962;2023-04-24T05:45:05;99953.38;;;15.13;74.40
79368;BME280;68834;53.152;17.962;2023-04-24T05:47:35;99959.55;;;15.00;74.63
79368;BME280;68834;53.152;17.962;2023-04-24T05:50:02;99960.55;;;14.88;74.57
79368;BME280;68834;53.152;17.962;2023-04-24T05:52:29;99960.27;;;14.81;73.94
79368;BME280;68834;53.152;17.962;2023-04-24T05:54:56;99952.02;;;14.74;73.78
79368;BME280;68834;53.152;17.962;2023-04-24T05:57:24;99953.09;;;14.71;74.28
79368;BME280;68834;53.152;17.962;2023-04-24T05:59:53;99948.91;;;14.70;74.39
79368;BME280;68834;53.152;17.962;2023-04-24T06:02:21;99944.46;;;14.74;74.41
79368;BME280;68834;53.152;17.962;2023-04-24T06:04:48;99950.41;;;14.81;74.20
79368;BME280;68834;53.152;17.962;2023-04-24T06:07:15;99952.11;;;14.88;73.99
79368;BME280;68834;53.152;17.962;2023-04-24T06:09:42;99956.20;;;14.94;73.58
79368;BME280;68834;53.152;17.962;2023-04-24T06:12:09;99954.36;;;14.99;73.43
79368;BME280;68834;53.152;17.962;2023-04-24T06:14:51;99953.84;;;15.04;72.86
79368;BME280;68834;53.152;17.962;2023-04-24T06:17:22;99948.91;;;15.08;72.71
79368;BME280;68834;53.152;17.962;2023-04-24T06:19:50;99944.52;;;15.17;72.78
79368;BME280;68834;53.152;17.962;2023-04-24T06:22:17;99938.42;;;15.34;72.77
79368;BME280;68834;53.152;17.962;2023-04-24T06:24:43;99940.00;;;15.53;72.09
79368;BME280;68834;53.152;17.962;2023-04-24T06:27:10;99925.14;;;15.69;72.03
79368;BME280;68834;53.152;17.962;2023-04-24T06:29:37;99931.35;;;15.92;71.74
79368;BME280;68834;53.152;17.962;2023-04-24T06:32:03;99927.16;;;16.12;70.70
79368;BME280;68834;53.152;17.962;2023-04-24T06:34:30;99927.11;;;16.15;70.16
79368;BME280;68834;53.152;17.962;2023-04-24T06:36:57;99924.08;;;16.11;69.95
79368;BME280;68834;53.152;17.962;2023-04-24T06:39:23;99921.32;;;16.07;70.02
79368;BME280;68834;53.152;17.962;2023-04-24T06:41:50;99918.33;;;16.04;69.74
79368;BME280;68834;53.152;17.962;2023-04-24T06:44:19;99920.77;;;15.98;69.24
79368;BME280;68834;53.152;17.962;2023-04-24T06:46:46;99918.39;;;15.91;68.68
79368;BME280;68834;53.152;17.962;2023-04-24T06:49:13;99916.71;;;15.87;68.00
79368;BME280;68834;53.152;17.962;2023-04-24T06:51:42;99914.04;;;15.87;67.91
79368;BME280;68834;53.152;17.962;2023-04-24T06:54:10;99915.22;;;15.93;67.63
79368;BME280;68834;53.152;17.962;2023-04-24T06:56:36;99915.43;;;16.02;66.89
79368;BME280;68834;53.152;17.962;2023-04-24T06:59:03;99916.77;;;16.12;67.24
79368;BME280;68834;53.152;17.962;2023-04-24T07:01:30;99913.77;;;16.23;66.18
79368;BME280;68834;53.152;17.962;2023-04-24T07:03:57;99911.71;;;16.31;64.87
79368;BME280;68834;53.152;17.962;2023-04-24T07:06:23;99908.67;;;16.40;65.31
79368;BME280;68834;53.152;17.962;2023-04-24T07:08:50;99911.36;;;16.44;63.10
79368;BME280;68834;53.152;17.962;2023-04-24T07:11:17;99913.38;;;16.46;63.52
79368;BME280;68834;53.152;17.962;2023-04-24T07:13:43;99913.50;;;16.50;63.47
79368;BME280;68834;53.152;17.962;2023-04-24T07:16:10;99914.11;;;16.52;63.44
79368;BME280;68834;53.152;17.962;2023-04-24T07:18:38;99917.71;;;16.54;62.87
79368;BME280;68834;53.152;17.962;2023-04-24T07:21:06;99912.42;;;16.56;63.21
79368;BME280;68834;53.152;17.962;2023-04-24T07:23:33;99910.67;;;16.64;62.92
79368;BME280;68834;53.152;17.962;2023-04-24T07:26:00;99908.08;;;16.66;61.31
79368;BME280;68834;53.152;17.962;2023-04-24T07:28:26;99906.06;;;16.67;61.56
79368;BME280;68834;53.152;17.962;2023-04-24T07:30:53;99907.20;;;16.71;61.22
79368;BME280;68834;53.152;17.962;2023-04-24T07:33:20;99906.55;;;16.79;61.33
79368;BME280;68834;53.152;17.962;2023-04-24T07:35:47;99904.93;;;16.88;60.63
79368;BME280;68834;53.152;17.962;2023-04-24T07:38:13;99905.35;;;16.95;59.26
79368;BME280;68834;53.152;17.962;2023-04-24T07:40:40;99906.59;;;17.09;59.05
79368;BME280;68834;53.152;17.962;2023-04-24T07:43:07;99903.27;;;17.22;56.99
79368;BME280;68834;53.152;17.962;2023-04-24T07:45:33;99903.63;;;17.32;56.46
79368;BME280;68834;53.152;17.962;2023-04-24T07:48:03;99898.86;;;17.46;56.90
79368;BME280;68834;53.152;17.962;2023-04-24T07:50:30;99902.59;;;17.56;55.92
79368;BME280;68834;53.152;17.962;2023-04-24T07:52:57;99900.26;;;17.64;56.01
79368;BME280;68834;53.152;17.962;2023-04-24T07:55:24;99899.77;;;17.77;56.04
79368;BME280;68834;53.152;17.962;2023-04-24T07:57:51;99902.19;;;17.83;53.97
79368;BME280;68834;53.152;17.962;2023-04-24T08:00:18;99904.38;;;17.76;53.57
79368;BME280;68834;53.152;17.962;2023-04-24T08:02:45;99901.27;;;17.75;53.96
79368;BME280;68834;53.152;17.962;2023-04-24T08:05:11;99905.00;;;17.78;53.79
79368;BME280;68834;53.152;17.962;2023-04-24T08:07:38;99900.66;;;17.87;54.23
79368;BME280;68834;53.152;17.962;2023-04-24T08:10:06;99896.86;;;17.96;53.47
79368;BME280;68834;53.152;17.962;2023-04-24T08:12:32;99897.48;;;18.15;53.33
79368;BME280;68834;53.152;17.962;2023-04-24T08:14:59;99896.44;;;18.32;51.80
79368;BME280;68834;53.152;17.962;2023-04-24T08:17:26;99895.65;;;18.53;51.32
79368;BME280;68834;53.152;17.962;2023-04-24T08:19:52;99900.83;;;18.70;49.91
79368;BME280;68834;53.152;17.962;2023-04-24T08:22:25;99894.11;;;18.87;49.53
79368;BME280;68834;53.152;17.962;2023-04-24T08:24:52;99893.48;;;19.12;49.46
79368;BME280;68834;53.152;17.962;2023-04-24T08:27:18;99888.19;;;19.26;48.10
79368;BME280;68834;53.152;17.962;2023-04-24T08:29:45;99889.05;;;19.24;47.95
79368;BME280;68834;53.152;17.962;2023-04-24T08:32:12;99885.02;;;19.24;48.41
79368;BME280;68834;53.152;17.962;2023-04-24T08:34:38;99884.67;;;19.22;48.02
79368;BME280;68834;53.152;17.962;2023-04-24T08:37:05;99879.30;;;19.17;48.29
79368;BME280;68834;53.152;17.962;2023-04-24T08:39:31;99882.02;;;19.12;47.48
79368;BME280;68834;53.152;17.962;2023-04-24T08:41:59;99887.37;;;19.04;46.87
79368;BME280;68834;53.152;17.962;2023-04-24T08:44:32;99877.80;;;18.93;47.06
79368;BME280;68834;53.152;17.962;2023-04-24T08:46:59;99878.26;;;18.86;47.38
79368;BME280;68834;53.152;17.962;2023-04-24T08:49:26;99873.23;;;18.85;47.45
79368;BME280;68834;53.152;17.962;2023-04-24T08:51:54;99874.80;;;18.93;48.01
79368;BME280;68834;53.152;17.962;2023-04-24T08:54:21;99877.04;;;19.05;47.59
79368;BME280;68834;53.152;17.962;2023-04-24T08:56:48;99875.77;;;19.18;47.37
79368;BME280;68834;53.152;17.962;2023-04-24T08:59:15;99878.66;;;19.19;46.91
79368;BME280;68834;53.152;17.962;2023-04-24T09:01:42;99876.92;;;19.14;46.95
79368;BME280;68834;53.152;17.962;2023-04-24T09:04:12;99873.40;;;19.16;47.16
79368;BME280;68834;53.152;17.962;2023-04-24T09:06:40;99877.31;;;19.13;46.69
79368;BME280;68834;53.152;17.962;2023-04-24T09:09:08;99881.80;;;19.11;46.92
79368;BME280;68834;53.152;17.962;2023-04-24T09:11:36;99884.73;;;19.02;47.13
79368;BME280;68834;53.152;17.962;2023-04-24T09:14:03;99882.00;;;18.95;47.22
79368;BME280;68834;53.152;17.962;2023-04-24T09:16:31;99884.53;;;18.88;47.18
79368;BME280;68834;53.152;17.962;2023-04-24T09:18:59;99886.30;;;18.80;47.24
79368;BME280;68834;53.152;17.962;2023-04-24T09:21:32;99888.84;;;18.77;47.47
79368;BME280;68834;53.152;17.962;2023-04-24T09:24:01;99891.43;;;18.75;47.79
79368;BME280;68834;53.152;17.962;2023-04-24T09:26:30;99894.39;;;18.76;47.78
79368;BME280;68834;53.152;17.962;2023-04-24T09:28:59;99885.99;;;18.82;47.95
79368;BME280;68834;53.152;17.962;2023-04-24T09:31:27;99883.58;;;18.86;48.16
79368;BME280;68834;53.152;17.962;2023-04-24T09:33:55;99886.10;;;18.90;48.46
79368;BME280;68834;53.152;17.962;2023-04-24T09:36:38;99883.92;;;18.98;48.17
79368;BME280;68834;53.152;17.962;2023-04-24T09:39:10;99882.50;;;19.13;48.91
79368;BME280;68834;53.152;17.962;2023-04-24T09:46:44;99868.85;;;19.29;47.50
79368;BME280;68834;53.152;17.962;2023-04-24T09:49:16;99869.69;;;19.40;47.09
79368;BME280;68834;53.152;17.962;2023-04-24T09:51:43;99866.65;;;19.51;47.10
79368;BME280;68834;53.152;17.962;2023-04-24T09:54:20;99864.78;;;19.66;47.11
79368;BME280;68834;53.152;17.962;2023-04-24T09:56:51;99859.27;;;19.86;46.57
79368;BME280;68834;53.152;17.962;2023-04-24T09:59:19;99863.97;;;20.00;45.44
79368;BME280;68834;53.152;17.962;2023-04-24T10:01:46;99860.73;;;20.12;45.52
79368;BME280;68834;53.152;17.962;2023-04-24T10:06:44;99857.80;;;20.20;45.10
79368;BME280;68834;53.152;17.962;2023-04-24T10:09:11;99852.98;;;20.29;45.22
79368;BME280;68834;53.152;17.962;2023-04-24T10:11:45;99845.06;;;20.31;44.58
79368;BME280;68834;53.152;17.962;2023-04-24T10:14:17;99847.61;;;20.30;44.18
79368;BME280;68834;53.152;17.962;2023-04-24T10:16:44;99847.77;;;20.37;44.01
79368;BME280;68834;53.152;17.962;2023-04-24T10:19:14;99840.05;;;20.40;44.08
79368;BME280;68834;53.152;17.962;2023-04-24T10:21:43;99834.36;;;20.62;44.02
79368;BME280;68834;53.152;17.962;2023-04-24T10:24:14;99829.02;;;20.88;43.43
79368;BME280;68834;53.152;17.962;2023-04-24T10:26:43;99830.67;;;21.20;43.40
79368;BME280;68834;53.152;17.962;2023-04-24T10:29:12;99839.42;;;21.39;43.05
79368;BME280;68834;53.152;17.962;2023-04-24T10:31:39;99834.69;;;21.44;42.12
79368;BME280;68834;53.152;17.962;2023-04-24T10:34:06;99838.27;;;21.40;42.00
79368;BME280;68834;53.152;17.962;2023-04-24T10:36:34;99837.23;;;21.46;42.12
79368;BME280;68834;53.152;17.962;2023-04-24T10:39:03;99838.45;;;21.71;41.59
79368;BME280;68834;53.152;17.962;2023-04-24T10:41:33;99830.44;;;22.06;41.29
79368;BME280;68834;53.152;17.962;2023-04-24T10:44:13;99833.39;;;22.41;40.28
79368;BME280;68834;53.152;17.962;2023-04-24T10:46:43;99830.11;;;22.78;40.59
79368;BME280;68834;53.152;17.962;2023-04-24T10:49:11;99827.40;;;23.46;39.97
79368;BME280;68834;53.152;17.962;2023-04-24T10:52:02;99831.77;;;23.95;37.61
79368;BME280;68834;53.152;17.962;2023-04-24T10:54:33;99832.16;;;24.04;36.73
79368;BME280;68834;53.152;17.962;2023-04-24T10:59:51;99834.53;;;24.75;36.50
79368;BME280;68834;53.152;17.962;2023-04-24T11:02:18;99832.96;;;24.82;35.35
79368;BME280;68834;53.152;17.962;2023-04-24T11:04:45;99838.12;;;24.82;35.01
79368;BME280;68834;53.152;17.962;2023-04-24T11:07:12;99833.02;;;24.90;35.48
79368;BME280;68834;53.152;17.962;2023-04-24T11:09:41;99832.91;;;25.20;34.83
79368;BME280;68834;53.152;17.962;2023-04-24T11:12:11;99830.16;;;25.68;34.42
79368;BME280;68834;53.152;17.962;2023-04-24T11:17:29;99824.39;;;27.01;31.36
79368;BME280;68834;53.152;17.962;2023-04-24T11:20:05;99825.68;;;26.37;32.44
79368;BME280;68834;53.152;17.962;2023-04-24T11:22:38;99826.46;;;26.48;31.91
79368;BME280;68834;53.152;17.962;2023-04-24T11:25:07;99827.52;;;26.07;32.86
79368;BME280;68834;53.152;17.962;2023-04-24T11:27:39;99835.98;;;25.21;34.34
79368;BME280;68834;53.152;17.962;2023-04-24T11:30:07;99836.07;;;24.69;35.36
79368;BME280;68834;53.152;17.962;2023-04-24T11:32:40;99840.34;;;23.98;37.12
79368;BME280;68834;53.152;17.962;2023-04-24T11:35:21;99838.77;;;23.39;38.93
79368;BME280;68834;53.152;17.962;2023-04-24T11:37:54;99843.22;;;23.22;39.51
79368;BME280;68834;53.152;17.962;2023-04-24T11:40:22;99846.10;;;23.04;40.22
79368;BME280;68834;53.152;17.962;2023-04-24T11:42:51;99848.15;;;22.81;38.80
79368;BME280;68834;53.152;17.962;2023-04-24T11:45:23;99848.52;;;22.77;37.34
79368;BME280;68834;53.152;17.962;2023-04-24T11:47:51;99849.94;;;23.19;37.23
79368;BME280;68834;53.152;17.962;2023-04-24T11:50:21;99849.17;;;23.69;36.52
79368;BME280;68834;53.152;17.962;2023-04-24T11:52:49;99844.08;;;24.39;35.13
79368;BME280;68834;53.152;17.962;2023-04-24T11:57:47;99845.48;;;24.76;34.06
79368;BME280;68834;53.152;17.962;2023-04-24T12:00:26;99837.54;;;24.38;34.52
79368;BME280;68834;53.152;17.962;2023-04-24T12:03:04;99843.92;;;24.08;34.92
79368;BME280;68834;53.152;17.962;2023-04-24T12:05:32;99841.70;;;23.61;35.77
79368;BME280;68834;53.152;17.962;2023-04-24T12:07:59;99839.28;;;23.18;36.74
79368;BME280;68834;53.152;17.962;2023-04-24T12:10:29;99832.73;;;23.33;36.82
79368;BME280;68834;53.152;17.962;2023-04-24T12:12:57;99834.48;;;23.24;37.36
79368;BME280;68834;53.152;17.962;2023-04-24T12:15:25;99835.90;;;23.35;37.21
79368;BME280;68834;53.152;17.962;2023-04-24T12:17:53;99834.44;;;23.34;38.04
79368;BME280;68834;53.152;17.962;2023-04-24T12:20:29;99835.38;;;23.18;38.56
79368;BME280;68834;53.152;17.962;2023-04-24T12:22:57;99830.82;;;23.10;38.11
79368;BME280;68834;53.152;17.962;2023-04-24T12:25:26;99834.55;;;22.76;38.65
79368;BME280;68834;53.152;17.962;2023-04-24T12:30:31;99840.52;;;22.13;40.39
79368;BME280;68834;53.152;17.962;2023-04-24T12:32:58;99833.14;;;22.06;40.63
79368;BME280;68834;53.152;17.962;2023-04-24T12:35:31;99827.29;;;22.97;39.51
79368;BME280;68834;53.152;17.962;2023-04-24T12:38:10;99822.08;;;24.06;37.59
79368;BME280;68834;53.152;17.962;2023-04-24T12:40:39;99825.84;;;23.63;38.16
79368;BME280;68834;53.152;17.962;2023-04-24T12:43:18;99826.29;;;22.93;39.42
79368;BME280;68834;53.152;17.962;2023-04-24T12:45:47;99820.02;;;22.52;40.16
79368;BME280;68834;53.152;17.962;2023-04-24T12:48:14;99821.56;;;22.42;41.05
79368;BME280;68834;53.152;17.962;2023-04-24T12:50:41;99821.56;;;22.32;41.37
79368;BME280;68834;53.152;17.962;2023-04-24T12:53:09;99821.30;;;22.55;41.42
79368;BME280;68834;53.152;17.962;2023-04-24T12:55:36;99819.59;;;24.19;38.87
79368;BME280;68834;53.152;17.962;2023-04-24T12:58:03;99805.86;;;25.29;37.04
79368;BME280;68834;53.152;17.962;2023-04-24T13:00:30;99804.51;;;25.48;36.00
79368;BME280;68834;53.152;17.962;2023-04-24T13:02:56;99811.52;;;25.12;36.15
79368;BME280;68834;53.152;17.962;2023-04-24T13:05:23;99810.01;;;24.63;36.25
79368;BME280;68834;53.152;17.962;2023-04-24T13:07:49;99802.58;;;24.12;36.76
79368;BME280;68834;53.152;17.962;2023-04-24T13:10:16;99799.40;;;23.79;37.25
79368;BME280;68834;53.152;17.962;2023-04-24T13:12:43;99802.38;;;23.72;37.53